Main page
METAR-TAF:

METAR-TAF

Airports :

London City Airport

London, England

latitude: 51-30N, longitude: 000-03E, elevation: 5 m

Current weather observation

The report was made 17 minutes ago, at 22:50 UTC
Wind 7 kt from the East/Northeast
Temperature 13°C
Humidity 77%
Pressure 1024 hPa
Visibility 10 km or more

METAR: EGLC 192250Z AUTO 07007KT 9999 NCD 13/09 Q1024

Time: 00:07 (23:07 UTC)

Forecast

The report was made 6 hours and 11 minutes ago, at 16:56 UTC
Forecast valid from 19 at 18 UTC to 19 at 21 UTC
Wind 14 kt from the East
Visibility 10 km or more
Few clouds at a height of 4000 ft

TAF: EGLC 191656Z 1918/1921 09014KT 9999 FEW040

Weather observations and forecasts of more than 4000 airports (METAR and TAF reports).

The available stations are represented by yellow and red dots on the map.

Hover mouse over dot to see the name of the station.

Then click to see weather observations and forecasts.

To change the map : click on the green buttons with a black cross to zoom in, on the green button with a dash to zoom out, or on the green arrows for adjacent maps.


METAR-TAF: